sensor_id;sensor_type;location;lat;lon;timestamp;P1;durP1;ratioP1;P2;durP2;ratioP2
12218;SDS011;6172;42.646;23.344;2023-11-22T00:00:06;20.80;;;14.07;;
12218;SDS011;6172;42.646;23.344;2023-11-22T00:02:34;24.50;;;14.83;;
12218;SDS011;6172;42.646;23.344;2023-11-22T00:05:02;22.03;;;14.63;;
12218;SDS011;6172;42.646;23.344;2023-11-22T00:07:30;22.10;;;14.60;;
12218;SDS011;6172;42.646;23.344;2023-11-22T00:10:00;22.90;;;13.93;;
12218;SDS011;6172;42.646;23.344;2023-11-22T00:12:30;23.00;;;14.10;;
12218;SDS011;6172;42.646;23.344;2023-11-22T00:15:01;21.00;;;13.63;;
12218;SDS011;6172;42.646;23.344;2023-11-22T00:17:30;21.10;;;13.60;;
12218;SDS011;6172;42.646;23.344;2023-11-22T00:19:57;19.17;;;11.73;;
12218;SDS011;6172;42.646;23.344;2023-11-22T00:22:28;23.07;;;12.57;;
12218;SDS011;6172;42.646;23.344;2023-11-22T00:24:57;20.50;;;12.90;;
12218;SDS011;6172;42.646;23.344;2023-11-22T00:27:27;19.47;;;12.43;;
12218;SDS011;6172;42.646;23.344;2023-11-22T00:29:56;23.00;;;12.77;;
12218;SDS011;6172;42.646;23.344;2023-11-22T00:32:23;20.13;;;12.87;;
12218;SDS011;6172;42.646;23.344;2023-11-22T00:34:50;24.47;;;13.90;;
12218;SDS011;6172;42.646;23.344;2023-11-22T00:37:17;22.93;;;14.30;;
12218;SDS011;6172;42.646;23.344;2023-11-22T00:39:44;23.03;;;14.57;;
12218;SDS011;6172;42.646;23.344;2023-11-22T00:42:11;23.83;;;14.93;;
12218;SDS011;6172;42.646;23.344;2023-11-22T00:44:40;24.87;;;13.83;;
12218;SDS011;6172;42.646;23.344;2023-11-22T00:47:07;21.50;;;13.97;;
12218;SDS011;6172;42.646;23.344;2023-11-22T00:49:34;21.57;;;13.50;;
12218;SDS011;6172;42.646;23.344;2023-11-22T00:52:00;17.93;;;12.77;;
12218;SDS011;6172;42.646;23.344;2023-11-22T00:54:28;22.13;;;13.23;;
12218;SDS011;6172;42.646;23.344;2023-11-22T00:56:55;19.73;;;13.27;;
12218;SDS011;6172;42.646;23.344;2023-11-22T00:59:21;19.90;;;11.70;;
12218;SDS011;6172;42.646;23.344;2023-11-22T01:01:50;20.73;;;12.67;;
12218;SDS011;6172;42.646;23.344;2023-11-22T01:04:17;18.67;;;12.67;;
12218;SDS011;6172;42.646;23.344;2023-11-22T01:06:44;20.07;;;12.80;;
12218;SDS011;6172;42.646;23.344;2023-11-22T01:09:11;16.03;;;11.73;;
12218;SDS011;6172;42.646;23.344;2023-11-22T01:11:39;19.73;;;12.40;;
12218;SDS011;6172;42.646;23.344;2023-11-22T01:14:05;21.60;;;12.47;;
12218;SDS011;6172;42.646;23.344;2023-11-22T01:16:32;20.73;;;12.60;;
12218;SDS011;6172;42.646;23.344;2023-11-22T01:19:03;18.63;;;11.73;;
12218;SDS011;6172;42.646;23.344;2023-11-22T01:21:30;21.57;;;13.50;;
12218;SDS011;6172;42.646;23.344;2023-11-22T01:23:57;19.07;;;11.50;;
12218;SDS011;6172;42.646;23.344;2023-11-22T01:26:25;19.23;;;11.37;;
12218;SDS011;6172;42.646;23.344;2023-11-22T01:28:52;17.77;;;11.43;;
12218;SDS011;6172;42.646;23.344;2023-11-22T01:31:18;18.63;;;12.10;;
12218;SDS011;6172;42.646;23.344;2023-11-22T01:33:47;20.53;;;12.27;;
12218;SDS011;6172;42.646;23.344;2023-11-22T01:36:15;19.50;;;12.53;;
12218;SDS011;6172;42.646;23.344;2023-11-22T01:38:42;17.90;;;11.33;;
12218;SDS011;6172;42.646;23.344;2023-11-22T01:41:09;19.47;;;11.90;;
12218;SDS011;6172;42.646;23.344;2023-11-22T01:43:38;20.97;;;11.97;;
12218;SDS011;6172;42.646;23.344;2023-11-22T01:46:07;21.77;;;12.30;;
12218;SDS011;6172;42.646;23.344;2023-11-22T01:48:34;19.33;;;11.80;;
12218;SDS011;6172;42.646;23.344;2023-11-22T01:51:02;19.07;;;12.57;;
12218;SDS011;6172;42.646;23.344;2023-11-22T01:53:31;19.87;;;11.93;;
12218;SDS011;6172;42.646;23.344;2023-11-22T01:55:58;18.43;;;11.60;;
12218;SDS011;6172;42.646;23.344;2023-11-22T01:58:26;18.60;;;11.83;;
12218;SDS011;6172;42.646;23.344;2023-11-22T02:00:54;18.97;;;11.67;;
12218;SDS011;6172;42.646;23.344;2023-11-22T02:03:21;20.07;;;11.53;;
12218;SDS011;6172;42.646;23.344;2023-11-22T02:05:48;16.13;;;11.33;;
12218;SDS011;6172;42.646;23.344;2023-11-22T02:08:18;19.40;;;12.13;;
12218;SDS011;6172;42.646;23.344;2023-11-22T02:10:52;21.27;;;11.97;;
12218;SDS011;6172;42.646;23.344;2023-11-22T02:13:24;18.47;;;11.50;;
12218;SDS011;6172;42.646;23.344;2023-11-22T02:15:51;19.93;;;12.47;;
12218;SDS011;6172;42.646;23.344;2023-11-22T02:18:21;19.27;;;11.43;;
12218;SDS011;6172;42.646;23.344;2023-11-22T02:20:48;19.17;;;12.40;;
12218;SDS011;6172;42.646;23.344;2023-11-22T02:23:17;21.00;;;12.73;;
12218;SDS011;6172;42.646;23.344;2023-11-22T02:25:44;22.57;;;12.80;;
12218;SDS011;6172;42.646;23.344;2023-11-22T02:28:11;19.03;;;12.60;;
12218;SDS011;6172;42.646;23.344;2023-11-22T02:30:39;20.20;;;12.63;;
12218;SDS011;6172;42.646;23.344;2023-11-22T02:33:06;21.47;;;12.73;;
12218;SDS011;6172;42.646;23.344;2023-11-22T02:35:34;20.67;;;13.43;;
12218;SDS011;6172;42.646;23.344;2023-11-22T02:38:01;20.17;;;12.23;;
12218;SDS011;6172;42.646;23.344;2023-11-22T02:40:29;17.93;;;11.60;;
12218;SDS011;6172;42.646;23.344;2023-11-22T02:42:56;17.93;;;11.00;;
12218;SDS011;6172;42.646;23.344;2023-11-22T02:45:25;20.57;;;11.73;;
12218;SDS011;6172;42.646;23.344;2023-11-22T02:47:53;21.40;;;11.73;;
12218;SDS011;6172;42.646;23.344;2023-11-22T02:50:20;16.43;;;11.43;;
12218;SDS011;6172;42.646;23.344;2023-11-22T02:52:47;20.27;;;11.00;;
12218;SDS011;6172;42.646;23.344;2023-11-22T02:55:14;19.20;;;12.43;;
12218;SDS011;6172;42.646;23.344;2023-11-22T02:57:42;17.10;;;11.90;;
12218;SDS011;6172;42.646;23.344;2023-11-22T03:00:11;19.47;;;11.73;;
12218;SDS011;6172;42.646;23.344;2023-11-22T03:02:39;18.30;;;11.60;;
12218;SDS011;6172;42.646;23.344;2023-11-22T03:05:07;18.27;;;12.47;;
12218;SDS011;6172;42.646;23.344;2023-11-22T03:07:35;19.57;;;11.40;;
12218;SDS011;6172;42.646;23.344;2023-11-22T03:10:02;18.23;;;12.03;;
12218;SDS011;6172;42.646;23.344;2023-11-22T03:12:30;18.07;;;11.47;;
12218;SDS011;6172;42.646;23.344;2023-11-22T03:14:58;19.30;;;11.97;;
12218;SDS011;6172;42.646;23.344;2023-11-22T03:17:27;19.00;;;11.27;;
12218;SDS011;6172;42.646;23.344;2023-11-22T03:19:54;19.20;;;12.23;;
12218;SDS011;6172;42.646;23.344;2023-11-22T03:22:26;19.17;;;11.20;;
12218;SDS011;6172;42.646;23.344;2023-11-22T03:24:55;16.07;;;11.87;;
12218;SDS011;6172;42.646;23.344;2023-11-22T03:27:23;17.50;;;11.27;;
12218;SDS011;6172;42.646;23.344;2023-11-22T03:29:51;19.03;;;11.47;;
12218;SDS011;6172;42.646;23.344;2023-11-22T03:32:19;18.37;;;12.23;;
12218;SDS011;6172;42.646;23.344;2023-11-22T03:34:47;18.83;;;11.40;;
12218;SDS011;6172;42.646;23.344;2023-11-22T03:37:14;20.27;;;11.83;;
12218;SDS011;6172;42.646;23.344;2023-11-22T03:39:41;16.67;;;11.40;;
12218;SDS011;6172;42.646;23.344;2023-11-22T03:42:13;18.70;;;11.63;;
12218;SDS011;6172;42.646;23.344;2023-11-22T03:44:41;16.87;;;11.77;;
12218;SDS011;6172;42.646;23.344;2023-11-22T03:47:09;14.57;;;10.47;;
12218;SDS011;6172;42.646;23.344;2023-11-22T03:49:38;18.47;;;11.57;;
12218;SDS011;6172;42.646;23.344;2023-11-22T03:52:05;14.53;;;10.70;;
12218;SDS011;6172;42.646;23.344;2023-11-22T03:54:33;19.20;;;11.33;;
12218;SDS011;6172;42.646;23.344;2023-11-22T03:57:00;20.20;;;12.30;;
12218;SDS011;6172;42.646;23.344;2023-11-22T03:59:27;17.10;;;10.47;;
12218;SDS011;6172;42.646;23.344;2023-11-22T04:01:54;20.40;;;11.23;;
12218;SDS011;6172;42.646;23.344;2023-11-22T04:04:22;19.63;;;11.60;;
12218;SDS011;6172;42.646;23.344;2023-11-22T04:06:52;16.07;;;10.73;;
12218;SDS011;6172;42.646;23.344;2023-11-22T04:09:19;17.50;;;11.10;;
12218;SDS011;6172;42.646;23.344;2023-11-22T04:11:47;20.20;;;10.73;;
12218;SDS011;6172;42.646;23.344;2023-11-22T04:14:32;14.57;;;10.57;;
12218;SDS011;6172;42.646;23.344;2023-11-22T04:17:01;13.53;;;9.50;;
12218;SDS011;6172;42.646;23.344;2023-11-22T04:19:28;15.37;;;10.57;;
12218;SDS011;6172;42.646;23.344;2023-11-22T04:21:56;17.23;;;10.70;;
12218;SDS011;6172;42.646;23.344;2023-11-22T04:24:24;15.53;;;10.77;;
12218;SDS011;6172;42.646;23.344;2023-11-22T04:26:51;14.00;;;10.10;;
12218;SDS011;6172;42.646;23.344;2023-11-22T04:29:20;15.47;;;10.53;;
12218;SDS011;6172;42.646;23.344;2023-11-22T04:31:47;22.57;;;11.77;;
12218;SDS011;6172;42.646;23.344;2023-11-22T04:34:14;15.30;;;10.10;;
12218;SDS011;6172;42.646;23.344;2023-11-22T04:36:41;17.07;;;10.93;;
12218;SDS011;6172;42.646;23.344;2023-11-22T04:39:11;15.50;;;10.27;;
12218;SDS011;6172;42.646;23.344;2023-11-22T04:41:38;15.87;;;10.40;;
12218;SDS011;6172;42.646;23.344;2023-11-22T04:44:05;17.20;;;10.33;;
12218;SDS011;6172;42.646;23.344;2023-11-22T04:46:32;18.90;;;11.13;;
12218;SDS011;6172;42.646;23.344;2023-11-22T04:49:00;20.93;;;11.70;;
12218;SDS011;6172;42.646;23.344;2023-11-22T04:51:27;23.97;;;12.63;;
12218;SDS011;6172;42.646;23.344;2023-11-22T04:53:54;18.53;;;11.20;;
12218;SDS011;6172;42.646;23.344;2023-11-22T04:56:23;21.63;;;11.37;;
12218;SDS011;6172;42.646;23.344;2023-11-22T04:58:49;25.53;;;12.80;;
12218;SDS011;6172;42.646;23.344;2023-11-22T05:01:16;19.47;;;11.87;;
12218;SDS011;6172;42.646;23.344;2023-11-22T05:03:44;20.13;;;11.97;;
12218;SDS011;6172;42.646;23.344;2023-11-22T05:06:11;16.03;;;11.40;;
12218;SDS011;6172;42.646;23.344;2023-11-22T05:08:38;18.60;;;11.17;;
12218;SDS011;6172;42.646;23.344;2023-11-22T05:11:05;18.87;;;11.93;;
12218;SDS011;6172;42.646;23.344;2023-11-22T05:13:34;19.07;;;12.20;;
12218;SDS011;6172;42.646;23.344;2023-11-22T05:16:01;18.10;;;12.23;;
12218;SDS011;6172;42.646;23.344;2023-11-22T05:18:28;19.60;;;11.93;;
12218;SDS011;6172;42.646;23.344;2023-11-22T05:20:55;24.87;;;12.70;;
12218;SDS011;6172;42.646;23.344;2023-11-22T05:23:22;15.87;;;11.63;;
12218;SDS011;6172;42.646;23.344;2023-11-22T05:25:49;17.97;;;12.13;;
12218;SDS011;6172;42.646;23.344;2023-11-22T05:28:16;19.07;;;12.20;;
12218;SDS011;6172;42.646;23.344;2023-11-22T05:30:44;15.73;;;11.37;;
12218;SDS011;6172;42.646;23.344;2023-11-22T05:33:11;16.43;;;10.90;;
12218;SDS011;6172;42.646;23.344;2023-11-22T05:35:38;17.07;;;11.37;;
12218;SDS011;6172;42.646;23.344;2023-11-22T05:38:06;19.73;;;12.23;;
12218;SDS011;6172;42.646;23.344;2023-11-22T05:40:35;16.53;;;11.37;;
12218;SDS011;6172;42.646;23.344;2023-11-22T05:43:02;15.10;;;10.57;;
12218;SDS011;6172;42.646;23.344;2023-11-22T05:45:29;16.50;;;10.67;;
12218;SDS011;6172;42.646;23.344;2023-11-22T05:47:58;15.40;;;11.27;;
12218;SDS011;6172;42.646;23.344;2023-11-22T05:50:24;19.87;;;11.43;;
12218;SDS011;6172;42.646;23.344;2023-11-22T05:52:51;17.60;;;11.77;;
12218;SDS011;6172;42.646;23.344;2023-11-22T05:55:18;17.63;;;12.13;;
12218;SDS011;6172;42.646;23.344;2023-11-22T05:57:46;19.63;;;11.37;;
12218;SDS011;6172;42.646;23.344;2023-11-22T06:00:13;18.23;;;11.40;;
12218;SDS011;6172;42.646;23.344;2023-11-22T06:02:41;18.40;;;12.53;;
12218;SDS011;6172;42.646;23.344;2023-11-22T06:05:09;18.10;;;12.47;;
12218;SDS011;6172;42.646;23.344;2023-11-22T06:07:36;21.03;;;12.20;;
12218;SDS011;6172;42.646;23.344;2023-11-22T06:10:03;20.47;;;13.20;;
12218;SDS011;6172;42.646;23.344;2023-11-22T06:12:35;17.17;;;11.77;;
12218;SDS011;6172;42.646;23.344;2023-11-22T06:15:02;19.23;;;12.57;;
12218;SDS011;6172;42.646;23.344;2023-11-22T06:17:30;18.87;;;12.07;;
12218;SDS011;6172;42.646;23.344;2023-11-22T06:19:57;14.23;;;10.83;;
12218;SDS011;6172;42.646;23.344;2023-11-22T06:22:25;16.77;;;10.90;;
12218;SDS011;6172;42.646;23.344;2023-11-22T06:24:52;14.37;;;10.30;;
12218;SDS011;6172;42.646;23.344;2023-11-22T06:27:19;17.23;;;11.27;;
12218;SDS011;6172;42.646;23.344;2023-11-22T06:29:46;16.60;;;10.70;;
12218;SDS011;6172;42.646;23.344;2023-11-22T06:32:14;16.37;;;11.03;;
12218;SDS011;6172;42.646;23.344;2023-11-22T06:34:47;15.77;;;11.37;;
12218;SDS011;6172;42.646;23.344;2023-11-22T06:37:14;15.43;;;10.73;;
12218;SDS011;6172;42.646;23.344;2023-11-22T06:39:43;18.33;;;11.07;;
12218;SDS011;6172;42.646;23.344;2023-11-22T06:44:55;15.80;;;10.40;;
12218;SDS011;6172;42.646;23.344;2023-11-22T06:47:23;15.80;;;11.37;;
12218;SDS011;6172;42.646;23.344;2023-11-22T06:49:51;22.90;;;12.00;;
12218;SDS011;6172;42.646;23.344;2023-11-22T06:52:18;18.23;;;12.63;;
12218;SDS011;6172;42.646;23.344;2023-11-22T06:54:46;16.97;;;11.77;;
12218;SDS011;6172;42.646;23.344;2023-11-22T06:57:13;20.20;;;13.17;;
12218;SDS011;6172;42.646;23.344;2023-11-22T06:59:40;19.27;;;12.67;;
12218;SDS011;6172;42.646;23.344;2023-11-22T07:02:07;18.30;;;12.17;;
12218;SDS011;6172;42.646;23.344;2023-11-22T07:04:34;17.03;;;12.20;;
12218;SDS011;6172;42.646;23.344;2023-11-22T07:07:02;20.20;;;12.67;;
12218;SDS011;6172;42.646;23.344;2023-11-22T07:09:29;18.00;;;11.80;;
12218;SDS011;6172;42.646;23.344;2023-11-22T07:11:59;18.03;;;12.20;;
12218;SDS011;6172;42.646;23.344;2023-11-22T07:14:26;16.73;;;11.83;;
12218;SDS011;6172;42.646;23.344;2023-11-22T07:16:54;18.70;;;11.70;;
12218;SDS011;6172;42.646;23.344;2023-11-22T07:19:22;24.40;;;13.47;;
12218;SDS011;6172;42.646;23.344;2023-11-22T07:21:49;28.67;;;12.90;;
12218;SDS011;6172;42.646;23.344;2023-11-22T07:24:17;24.37;;;13.80;;
12218;SDS011;6172;42.646;23.344;2023-11-22T07:26:44;20.73;;;14.10;;
12218;SDS011;6172;42.646;23.344;2023-11-22T07:29:13;28.90;;;14.47;;
12218;SDS011;6172;42.646;23.344;2023-11-22T07:31:40;26.87;;;14.30;;
12218;SDS011;6172;42.646;23.344;2023-11-22T07:34:07;20.07;;;13.77;;
12218;SDS011;6172;42.646;23.344;2023-11-22T07:36:36;17.33;;;11.77;;
12218;SDS011;6172;42.646;23.344;2023-11-22T07:39:05;19.70;;;13.77;;
12218;SDS011;6172;42.646;23.344;2023-11-22T07:41:32;27.43;;;13.33;;
12218;SDS011;6172;42.646;23.344;2023-11-22T07:44:00;17.30;;;11.93;;
12218;SDS011;6172;42.646;23.344;2023-11-22T07:46:29;18.90;;;12.63;;
12218;SDS011;6172;42.646;23.344;2023-11-22T07:48:55;19.03;;;12.43;;
12218;SDS011;6172;42.646;23.344;2023-11-22T07:51:22;20.13;;;12.83;;
12218;SDS011;6172;42.646;23.344;2023-11-22T07:53:50;19.87;;;13.47;;
12218;SDS011;6172;42.646;23.344;2023-11-22T07:56:18;20.63;;;13.53;;
12218;SDS011;6172;42.646;23.344;2023-11-22T07:58:45;21.13;;;14.27;;
12218;SDS011;6172;42.646;23.344;2023-11-22T08:01:12;21.10;;;13.73;;
12218;SDS011;6172;42.646;23.344;2023-11-22T08:03:40;22.27;;;14.83;;
12218;SDS011;6172;42.646;23.344;2023-11-22T08:06:10;19.83;;;13.83;;
12218;SDS011;6172;42.646;23.344;2023-11-22T08:08:38;17.53;;;12.37;;
12218;SDS011;6172;42.646;23.344;2023-11-22T08:11:05;18.07;;;13.03;;
12218;SDS011;6172;42.646;23.344;2023-11-22T08:13:40;20.30;;;12.73;;
12218;SDS011;6172;42.646;23.344;2023-11-22T08:16:08;18.37;;;12.00;;
12218;SDS011;6172;42.646;23.344;2023-11-22T08:18:35;18.50;;;12.77;;
12218;SDS011;6172;42.646;23.344;2023-11-22T08:21:03;20.93;;;13.27;;
12218;SDS011;6172;42.646;23.344;2023-11-22T08:23:30;20.40;;;13.30;;
12218;SDS011;6172;42.646;23.344;2023-11-22T08:25:58;18.43;;;11.93;;
12218;SDS011;6172;42.646;23.344;2023-11-22T08:28:25;18.03;;;12.00;;
12218;SDS011;6172;42.646;23.344;2023-11-22T08:30:52;18.93;;;12.80;;
12218;SDS011;6172;42.646;23.344;2023-11-22T08:33:20;20.10;;;11.90;;
12218;SDS011;6172;42.646;23.344;2023-11-22T08:35:47;14.57;;;10.63;;
12218;SDS011;6172;42.646;23.344;2023-11-22T08:38:19;20.70;;;13.00;;
12218;SDS011;6172;42.646;23.344;2023-11-22T08:40:46;20.87;;;12.07;;
12218;SDS011;6172;42.646;23.344;2023-11-22T08:43:13;18.20;;;12.17;;
12218;SDS011;6172;42.646;23.344;2023-11-22T08:45:40;17.37;;;11.80;;
12218;SDS011;6172;42.646;23.344;2023-11-22T08:48:09;20.97;;;12.73;;
12218;SDS011;6172;42.646;23.344;2023-11-22T08:50:36;18.13;;;12.13;;
12218;SDS011;6172;42.646;23.344;2023-11-22T08:53:03;19.10;;;12.83;;
12218;SDS011;6172;42.646;23.344;2023-11-22T08:55:32;17.40;;;12.80;;
12218;SDS011;6172;42.646;23.344;2023-11-22T08:57:59;20.43;;;13.60;;
12218;SDS011;6172;42.646;23.344;2023-11-22T09:00:26;21.67;;;13.27;;
12218;SDS011;6172;42.646;23.344;2023-11-22T09:02:54;22.00;;;15.03;;
12218;SDS011;6172;42.646;23.344;2023-11-22T09:05:21;23.07;;;14.77;;
12218;SDS011;6172;42.646;23.344;2023-11-22T09:07:48;21.83;;;14.63;;
12218;SDS011;6172;42.646;23.344;2023-11-22T09:10:16;22.53;;;13.73;;
12218;SDS011;6172;42.646;23.344;2023-11-22T09:12:47;21.10;;;13.27;;
12218;SDS011;6172;42.646;23.344;2023-11-22T09:15:15;23.33;;;15.50;;
12218;SDS011;6172;42.646;23.344;2023-11-22T09:17:43;27.10;;;16.07;;
12218;SDS011;6172;42.646;23.344;2023-11-22T09:20:11;22.13;;;15.07;;
12218;SDS011;6172;42.646;23.344;2023-11-22T09:22:43;19.27;;;14.33;;
12218;SDS011;6172;42.646;23.344;2023-11-22T09:25:16;22.50;;;13.50;;
12218;SDS011;6172;42.646;23.344;2023-11-22T09:27:46;18.97;;;12.90;;
12218;SDS011;6172;42.646;23.344;2023-11-22T09:30:14;15.37;;;11.97;;
12218;SDS011;6172;42.646;23.344;2023-11-22T09:32:57;16.90;;;11.83;;
12218;SDS011;6172;42.646;23.344;2023-11-22T09:35:25;18.20;;;12.53;;
12218;SDS011;6172;42.646;23.344;2023-11-22T09:37:54;18.30;;;11.97;;
12218;SDS011;6172;42.646;23.344;2023-11-22T09:40:22;18.10;;;12.60;;
12218;SDS011;6172;42.646;23.344;2023-11-22T09:42:50;21.47;;;12.67;;
12218;SDS011;6172;42.646;23.344;2023-11-22T09:45:18;18.17;;;12.60;;
12218;SDS011;6172;42.646;23.344;2023-11-22T09:47:46;16.60;;;13.23;;
12218;SDS011;6172;42.646;23.344;2023-11-22T09:50:14;22.97;;;14.60;;
12218;SDS011;6172;42.646;23.344;2023-11-22T09:52:46;19.30;;;13.77;;
12218;SDS011;6172;42.646;23.344;2023-11-22T09:55:17;22.23;;;13.87;;
12218;SDS011;6172;42.646;23.344;2023-11-22T09:57:45;20.27;;;14.10;;
12218;SDS011;6172;42.646;23.344;2023-11-22T10:00:14;21.03;;;14.83;;
12218;SDS011;6172;42.646;23.344;2023-11-22T10:02:44;23.40;;;15.80;;
12218;SDS011;6172;42.646;23.344;2023-11-22T10:05:12;21.43;;;15.73;;
12218;SDS011;6172;42.646;23.344;2023-11-22T10:07:39;23.60;;;16.43;;
12218;SDS011;6172;42.646;23.344;2023-11-22T10:10:06;23.03;;;16.47;;
12218;SDS011;6172;42.646;23.344;2023-11-22T10:12:36;22.67;;;16.83;;
12218;SDS011;6172;42.646;23.344;2023-11-22T10:15:12;22.80;;;15.17;;
12218;SDS011;6172;42.646;23.344;2023-11-22T10:17:41;21.40;;;15.47;;
12218;SDS011;6172;42.646;23.344;2023-11-22T10:20:14;20.07;;;16.20;;
12218;SDS011;6172;42.646;23.344;2023-11-22T10:22:44;25.20;;;16.97;;
12218;SDS011;6172;42.646;23.344;2023-11-22T10:25:13;23.13;;;16.83;;
12218;SDS011;6172;42.646;23.344;2023-11-22T10:27:43;24.53;;;17.20;;
12218;SDS011;6172;42.646;23.344;2023-11-22T10:30:11;22.83;;;16.20;;
12218;SDS011;6172;42.646;23.344;2023-11-22T10:32:41;22.63;;;16.80;;
12218;SDS011;6172;42.646;23.344;2023-11-22T10:35:08;22.47;;;16.80;;
12218;SDS011;6172;42.646;23.344;2023-11-22T10:37:35;19.53;;;15.57;;
12218;SDS011;6172;42.646;23.344;2023-11-22T10:40:02;23.47;;;15.53;;
12218;SDS011;6172;42.646;23.344;2023-11-22T10:42:36;24.07;;;15.67;;
12218;SDS011;6172;42.646;23.344;2023-11-22T10:45:07;21.20;;;16.07;;
12218;SDS011;6172;42.646;23.344;2023-11-22T10:47:35;22.63;;;14.27;;
12218;SDS011;6172;42.646;23.344;2023-11-22T10:50:06;23.60;;;15.03;;
12218;SDS011;6172;42.646;23.344;2023-11-22T10:52:35;23.27;;;15.37;;
12218;SDS011;6172;42.646;23.344;2023-11-22T10:55:03;23.47;;;14.97;;
12218;SDS011;6172;42.646;23.344;2023-11-22T10:57:32;23.80;;;15.03;;
12218;SDS011;6172;42.646;23.344;2023-11-22T11:00:11;21.07;;;14.77;;
12218;SDS011;6172;42.646;23.344;2023-11-22T11:02:40;20.33;;;14.70;;
12218;SDS011;6172;42.646;23.344;2023-11-22T11:05:14;21.60;;;15.30;;
12218;SDS011;6172;42.646;23.344;2023-11-22T11:07:45;21.97;;;15.20;;
12218;SDS011;6172;42.646;23.344;2023-11-22T11:10:17;21.20;;;16.20;;
12218;SDS011;6172;42.646;23.344;2023-11-22T11:12:47;23.57;;;16.63;;
12218;SDS011;6172;42.646;23.344;2023-11-22T11:15:14;21.30;;;16.27;;
12218;SDS011;6172;42.646;23.344;2023-11-22T11:17:44;23.77;;;16.20;;
12218;SDS011;6172;42.646;23.344;2023-11-22T11:20:16;20.43;;;16.60;;
12218;SDS011;6172;42.646;23.344;2023-11-22T11:22:46;23.93;;;15.70;;
12218;SDS011;6172;42.646;23.344;2023-11-22T11:25:13;22.67;;;15.57;;
12218;SDS011;6172;42.646;23.344;2023-11-22T11:27:44;18.93;;;15.27;;
12218;SDS011;6172;42.646;23.344;2023-11-22T11:33:11;22.53;;;15.00;;
12218;SDS011;6172;42.646;23.344;2023-11-22T11:35:43;22.63;;;15.03;;
12218;SDS011;6172;42.646;23.344;2023-11-22T11:38:12;21.33;;;14.83;;
12218;SDS011;6172;42.646;23.344;2023-11-22T11:40:40;24.03;;;15.93;;
12218;SDS011;6172;42.646;23.344;2023-11-22T11:43:07;25.33;;;16.10;;
12218;SDS011;6172;42.646;23.344;2023-11-22T11:45:36;22.30;;;14.53;;
12218;SDS011;6172;42.646;23.344;2023-11-22T11:48:04;22.47;;;14.67;;
12218;SDS011;6172;42.646;23.344;2023-11-22T11:50:32;20.23;;;14.93;;
12218;SDS011;6172;42.646;23.344;2023-11-22T11:53:00;24.23;;;15.27;;
12218;SDS011;6172;42.646;23.344;2023-11-22T11:55:27;22.80;;;14.57;;
12218;SDS011;6172;42.646;23.344;2023-11-22T11:57:54;20.03;;;13.50;;
12218;SDS011;6172;42.646;23.344;2023-11-22T12:00:21;19.40;;;14.57;;
12218;SDS011;6172;42.646;23.344;2023-11-22T12:02:50;19.70;;;14.17;;
12218;SDS011;6172;42.646;23.344;2023-11-22T12:05:18;21.20;;;14.70;;
12218;SDS011;6172;42.646;23.344;2023-11-22T12:07:46;21.80;;;15.47;;
12218;SDS011;6172;42.646;23.344;2023-11-22T12:10:15;25.03;;;16.30;;
12218;SDS011;6172;42.646;23.344;2023-11-22T12:12:45;22.87;;;16.07;;
12218;SDS011;6172;42.646;23.344;2023-11-22T12:15:12;22.23;;;16.07;;
12218;SDS011;6172;42.646;23.344;2023-11-22T12:17:42;24.37;;;16.37;;
12218;SDS011;6172;42.646;23.344;2023-11-22T12:20:22;22.17;;;15.83;;
12218;SDS011;6172;42.646;23.344;2023-11-22T12:22:51;27.43;;;18.67;;
12218;SDS011;6172;42.646;23.344;2023-11-22T12:25:21;28.40;;;19.70;;
12218;SDS011;6172;42.646;23.344;2023-11-22T12:27:59;29.73;;;20.07;;
12218;SDS011;6172;42.646;23.344;2023-11-22T12:30:31;39.03;;;18.77;;
12218;SDS011;6172;42.646;23.344;2023-11-22T12:33:14;31.17;;;19.80;;
12218;SDS011;6172;42.646;23.344;2023-11-22T12:35:43;29.30;;;18.33;;
12218;SDS011;6172;42.646;23.344;2023-11-22T12:38:10;27.80;;;19.13;;
12218;SDS011;6172;42.646;23.344;2023-11-22T12:40:42;27.90;;;19.10;;
12218;SDS011;6172;42.646;23.344;2023-11-22T12:43:11;28.23;;;18.50;;
12218;SDS011;6172;42.646;23.344;2023-11-22T12:45:39;27.33;;;18.23;;
12218;SDS011;6172;42.646;23.344;2023-11-22T12:48:22;22.13;;;16.93;;
12218;SDS011;6172;42.646;23.344;2023-11-22T12:50:50;20.53;;;15.03;;
12218;SDS011;6172;42.646;23.344;2023-11-22T12:53:19;18.47;;;14.57;;
12218;SDS011;6172;42.646;23.344;2023-11-22T12:55:49;21.13;;;15.83;;
12218;SDS011;6172;42.646;23.344;2023-11-22T12:58:17;23.50;;;16.37;;
12218;SDS011;6172;42.646;23.344;2023-11-22T13:00:45;29.33;;;16.07;;
12218;SDS011;6172;42.646;23.344;2023-11-22T13:03:13;23.43;;;15.83;;
12218;SDS011;6172;42.646;23.344;2023-11-22T13:05:41;24.73;;;15.50;;
12218;SDS011;6172;42.646;23.344;2023-11-22T13:08:10;23.60;;;15.40;;
12218;SDS011;6172;42.646;23.344;2023-11-22T13:10:38;23.60;;;14.67;;
12218;SDS011;6172;42.646;23.344;2023-11-22T13:13:07;20.63;;;15.07;;
12218;SDS011;6172;42.646;23.344;2023-11-22T13:15:35;22.93;;;16.00;;
12218;SDS011;6172;42.646;23.344;2023-11-22T13:18:02;21.67;;;15.30;;
12218;SDS011;6172;42.646;23.344;2023-11-22T13:20:31;24.40;;;15.33;;
12218;SDS011;6172;42.646;23.344;2023-11-22T13:22:58;21.67;;;15.80;;
12218;SDS011;6172;42.646;23.344;2023-11-22T13:25:26;20.07;;;15.17;;
12218;SDS011;6172;42.646;23.344;2023-11-22T13:27:53;19.40;;;15.20;;
12218;SDS011;6172;42.646;23.344;2023-11-22T13:30:23;22.50;;;15.77;;
12218;SDS011;6172;42.646;23.344;2023-11-22T13:32:50;23.90;;;15.83;;
12218;SDS011;6172;42.646;23.344;2023-11-22T13:35:19;24.13;;;16.33;;
12218;SDS011;6172;42.646;23.344;2023-11-22T13:37:47;25.33;;;16.07;;
12218;SDS011;6172;42.646;23.344;2023-11-22T13:40:15;22.70;;;15.53;;
12218;SDS011;6172;42.646;23.344;2023-11-22T13:42:46;22.60;;;15.60;;
12218;SDS011;6172;42.646;23.344;2023-11-22T13:45:15;22.43;;;15.63;;
12218;SDS011;6172;42.646;23.344;2023-11-22T13:47:44;23.60;;;15.57;;
12218;SDS011;6172;42.646;23.344;2023-11-22T13:50:12;21.03;;;15.57;;
12218;SDS011;6172;42.646;23.344;2023-11-22T13:52:43;23.67;;;16.20;;
12218;SDS011;6172;42.646;23.344;2023-11-22T13:55:10;31.50;;;20.03;;
12218;SDS011;6172;42.646;23.344;2023-11-22T13:57:38;33.50;;;22.30;;
12218;SDS011;6172;42.646;23.344;2023-11-22T14:00:08;31.80;;;22.77;;
12218;SDS011;6172;42.646;23.344;2023-11-22T14:02:45;33.00;;;22.43;;
12218;SDS011;6172;42.646;23.344;2023-11-22T14:05:12;30.60;;;23.63;;
12218;SDS011;6172;42.646;23.344;2023-11-22T14:07:40;37.67;;;26.40;;
12218;SDS011;6172;42.646;23.344;2023-11-22T14:10:08;32.63;;;24.87;;
12218;SDS011;6172;42.646;23.344;2023-11-22T14:12:36;47.97;;;34.47;;
12218;SDS011;6172;42.646;23.344;2023-11-22T14:15:03;40.03;;;29.10;;
12218;SDS011;6172;42.646;23.344;2023-11-22T14:17:31;40.10;;;28.03;;
12218;SDS011;6172;42.646;23.344;2023-11-22T14:20:00;40.33;;;28.07;;
12218;SDS011;6172;42.646;23.344;2023-11-22T14:22:30;36.37;;;27.23;;
12218;SDS011;6172;42.646;23.344;2023-11-22T14:24:57;39.17;;;27.90;;
12218;SDS011;6172;42.646;23.344;2023-11-22T14:27:25;40.33;;;26.43;;
12218;SDS011;6172;42.646;23.344;2023-11-22T14:29:53;30.87;;;22.90;;
12218;SDS011;6172;42.646;23.344;2023-11-22T14:32:19;27.13;;;19.83;;